Terminal Aerodrome Forecast
Issued by NWS Charleston, WV

Current Version | Previous Version | Text Only | Print | Product List | Glossary Off
Versions: 1 2 3 4 5 6 7 8 9 10 11 12 13 14 15 16 17 18 19 20 21 22 23

465
FTUS41 KRLX 121735
TAFHTS
TAF
KHTS 121735Z 1218/1318 32012G24KT P6SM BKN035
      TEMPO 1218/1222 2SM -SHSN OVC015
     FM130400 29010G17KT P6SM SCT250
     FM130700 27007KT P6SM SCT250
     FM131200 25003KT P6SM FEW250=

USA.gov is the U.S. government's official web portal to all federal, state and local government web resources and services.